Time;durP1;ratioP1;P1;durP2;ratioP2;P2;SDS_P1;SDS_P2;PMS_P1;PMS_P2;Temp;Humidity;BMP_temperature;BMP_pressure;BME280_temperature;BME280_humidity;BME280_pressure;Samples;Min_cycle;Max_cycle;Signal;HPM_P1;HPM_P2
2022/04/05 00:00:58;;;;;;;15.13;3.00;;;7.40;99.90;;;;;;5052213;28;20060;-87
2022/04/05 00:03:24;;;;;;;22.38;4.57;;;7.40;99.90;;;;;;5052513;28;20041;-86
2022/04/05 00:05:50;;;;;;;21.55;3.22;;;7.30;99.90;;;;;;5052216;28;20045;-86
2022/04/05 00:08:16;;;;;;;18.35;2.45;;;7.40;99.90;;;;;;5052445;28;20049;-87
2022/04/05 00:10:42;;;;;;;19.88;2.47;;;7.30;99.90;;;;;;5052179;28;20067;-86
2022/04/05 00:13:08;;;;;;;21.70;2.70;;;7.30;99.90;;;;;;5052018;28;20061;-87
2022/04/05 00:15:34;;;;;;;21.50;2.38;;;7.40;99.90;;;;;;5052385;28;20076;-87
2022/04/05 00:18:01;;;;;;;18.83;2.97;;;7.40;99.90;;;;;;5052325;28;20491;-87
2022/04/05 00:20:27;;;;;;;23.90;5.18;;;7.40;99.90;;;;;;5053356;28;20052;-87
2022/04/05 00:22:54;;;;;;;25.05;2.78;;;7.30;99.90;;;;;;5052076;28;20052;-88
2022/04/05 00:25:20;;;;;;;14.45;2.28;;;7.40;99.90;;;;;;5051851;28;20084;-87
2022/04/05 00:27:46;;;;;;;9.40;1.75;;;7.40;99.90;;;;;;5054430;28;20084;-87
2022/04/05 00:30:13;;;;;;;8.20;1.60;;;7.20;99.90;;;;;;5055906;28;20056;-86
2022/04/05 00:32:38;;;;;;;13.02;2.58;;;7.20;99.90;;;;;;5055803;28;20080;-86
2022/04/05 00:35:05;;;;;;;12.68;1.90;;;7.10;99.90;;;;;;5056215;28;20071;-86
2022/04/05 00:37:30;;;;;;;8.07;1.25;;;7.10;99.90;;;;;;5055843;28;20087;-86
2022/04/05 00:39:56;;;;;;;13.88;1.92;;;7.10;99.90;;;;;;5057127;28;20080;-86
2022/04/05 00:42:22;;;;;;;15.40;1.60;;;7.10;99.90;;;;;;5057133;28;20091;-86
2022/04/05 00:44:48;;;;;;;10.38;1.77;;;7.00;99.90;;;;;;5055835;28;20056;-86
2022/04/05 00:47:16;;;;;;;12.85;2.55;;;7.00;99.90;;;;;;5055930;28;20461;-86
2022/04/05 00:49:44;;;;;;;15.48;2.53;;;7.10;99.90;;;;;;5055571;28;20048;-86
2022/04/05 00:52:11;;;;;;;13.30;1.92;;;7.00;99.90;;;;;;5055878;28;20040;-87
2022/04/05 00:54:38;;;;;;;14.85;2.80;;;7.00;99.90;;;;;;5055345;28;20041;-86
2022/04/05 00:57:11;;;;;;;15.82;2.63;;;7.00;99.90;;;;;;5056800;28;20080;-86
2022/04/05 00:59:43;;;;;;;10.65;1.15;;;7.00;99.90;;;;;;5055454;28;20047;-86
2022/04/05 01:02:19;;;;;;;12.23;2.03;;;7.00;99.90;;;;;;5055695;28;20045;-86
2022/04/05 01:04:47;;;;;;;20.90;2.28;;;7.00;99.90;;;;;;5055242;28;20091;-86
2022/04/05 01:07:22;;;;;;;15.40;1.95;;;7.00;99.90;;;;;;5056608;28;20045;-86
2022/04/05 01:09:53;;;;;;;19.35;2.88;;;7.00;99.90;;;;;;5055168;28;20041;-86
2022/04/05 01:12:20;;;;;;;18.45;1.98;;;7.00;99.90;;;;;;5055270;28;20055;-86
2022/04/05 01:14:46;;;;;;;13.80;2.10;;;7.00;99.90;;;;;;5055157;28;20111;-87
2022/04/05 01:17:13;;;;;;;13.30;1.83;;;7.00;99.90;;;;;;5055292;28;20441;-87
2022/04/05 01:19:39;;;;;;;12.27;2.13;;;7.00;99.90;;;;;;5055209;28;20041;-87
2022/04/05 01:22:05;;;;;;;17.20;3.33;;;7.00;99.90;;;;;;5054838;28;20458;-87
2022/04/05 01:24:32;;;;;;;19.00;2.72;;;7.00;99.90;;;;;;5054941;28;20047;-86
2022/04/05 01:27:01;;;;;;;21.25;2.80;;;7.00;99.90;;;;;;5056153;28;20133;-87
2022/04/05 01:29:28;;;;;;;11.63;1.33;;;7.00;99.90;;;;;;5055148;28;20049;-86
2022/04/05 01:32:05;;;;;;;8.68;1.35;;;7.00;99.90;;;;;;5054804;28;20120;-86
2022/04/05 01:34:34;;;;;;;18.77;4.18;;;7.00;99.90;;;;;;5054740;28;20124;-87
2022/04/05 01:37:02;;;;;;;20.40;2.60;;;7.00;99.90;;;;;;5054945;28;20083;-86
2022/04/05 01:39:30;;;;;;;17.70;2.45;;;7.00;99.90;;;;;;5055421;28;20060;-86
2022/04/05 01:41:59;;;;;;;20.63;2.33;;;7.00;99.90;;;;;;5054996;28;20057;-87
2022/04/05 01:44:26;;;;;;;20.60;2.63;;;7.00;99.90;;;;;;5054432;28;20060;-86
2022/04/05 01:46:52;;;;;;;14.15;2.65;;;7.00;99.90;;;;;;5054676;28;20045;-86
2022/04/05 01:49:18;;;;;;;15.73;2.33;;;7.00;99.90;;;;;;5054438;28;20045;-86
2022/04/05 01:51:45;;;;;;;15.98;2.45;;;6.90;99.90;;;;;;5054382;28;20049;-87
2022/04/05 01:54:13;;;;;;;19.55;3.05;;;6.90;99.90;;;;;;5054447;28;20049;-87
2022/04/05 01:56:47;;;;;;;19.63;3.95;;;6.90;99.90;;;;;;5054355;28;20055;-87
2022/04/05 01:59:15;;;;;;;13.20;2.55;;;6.90;99.90;;;;;;5054417;28;20049;-86
2022/04/05 02:01:41;;;;;;;22.00;3.53;;;6.90;99.90;;;;;;5054225;28;20045;-86
2022/04/05 02:04:11;;;;;;;19.45;2.60;;;6.90;99.90;;;;;;5054196;28;20045;-86
2022/04/05 02:06:38;;;;;;;20.00;4.25;;;6.90;99.90;;;;;;5054487;28;20049;-87
2022/04/05 02:09:04;;;;;;;21.08;2.63;;;6.90;99.90;;;;;;5054242;28;20049;-86
2022/04/05 02:11:30;;;;;;;23.65;3.15;;;6.90;99.90;;;;;;5053781;28;20103;-86
2022/04/05 02:13:56;;;;;;;20.35;2.45;;;6.90;99.90;;;;;;5053813;28;20063;-87
2022/04/05 02:16:21;;;;;;;16.23;1.98;;;6.90;99.90;;;;;;5053870;28;20076;-87
2022/04/05 02:18:47;;;;;;;13.63;1.90;;;6.90;99.90;;;;;;5055227;28;20115;-87
2022/04/05 02:21:13;;;;;;;14.23;2.35;;;6.80;99.90;;;;;;5053940;28;20041;-86
2022/04/05 02:23:39;;;;;;;16.10;2.42;;;6.90;99.90;;;;;;5055131;28;20128;-87
2022/04/05 02:26:04;;;;;;;17.30;1.73;;;6.90;99.90;;;;;;5053956;28;20076;-87
2022/04/05 02:28:30;;;;;;;18.13;2.33;;;6.80;99.90;;;;;;5053966;28;20075;-87
2022/04/05 02:30:56;;;;;;;14.85;3.20;;;6.90;99.90;;;;;;5053605;28;20087;-87
2022/04/05 02:33:21;;;;;;;15.13;1.88;;;6.80;99.90;;;;;;5053663;28;20400;-87
2022/04/05 02:35:48;;;;;;;9.10;1.95;;;6.90;99.90;;;;;;5053696;28;20041;-87
2022/04/05 02:38:14;;;;;;;17.10;2.83;;;6.80;99.90;;;;;;5053526;28;20409;-87
2022/04/05 02:40:40;;;;;;;13.07;3.33;;;6.90;99.90;;;;;;5053609;28;20432;-87
2022/04/05 02:43:06;;;;;;;16.45;1.63;;;6.90;99.90;;;;;;5053659;28;20049;-87
2022/04/05 02:45:32;;;;;;;16.00;2.40;;;6.80;99.90;;;;;;5053407;28;20067;-88
2022/04/05 02:47:58;;;;;;;17.98;2.40;;;6.80;99.90;;;;;;5053223;28;20124;-87
2022/04/05 02:50:23;;;;;;;17.30;1.52;;;6.80;99.90;;;;;;5052590;28;20179;-87
2022/04/05 02:52:50;;;;;;;15.68;1.90;;;6.80;99.90;;;;;;5054521;28;20392;-87
2022/04/05 02:55:16;;;;;;;11.02;1.45;;;6.80;99.90;;;;;;5053028;28;20052;-87
2022/04/05 02:57:44;;;;;;;12.80;1.80;;;6.90;99.90;;;;;;5053315;28;20041;-86
2022/04/05 03:00:13;;;;;;;20.95;2.05;;;6.80;99.90;;;;;;5053351;28;20060;-86
2022/04/05 03:02:40;;;;;;;11.68;1.77;;;6.80;99.90;;;;;;5053363;28;20128;-86
2022/04/05 03:05:06;;;;;;;29.63;4.18;;;6.80;99.90;;;;;;5053319;28;20060;-86
2022/04/05 03:07:37;;;;;;;17.10;2.22;;;6.80;99.90;;;;;;5053258;28;20049;-87
2022/04/05 03:10:08;;;;;;;16.77;3.22;;;6.80;99.90;;;;;;5054253;28;20045;-86
2022/04/05 03:13:32;;;;;;;22.05;2.78;;;6.90;99.90;;;;;;5053033;28;20408;-87
2022/04/05 03:15:57;;;;;;;;;;;6.80;99.90;;;;;;5036856;28;20060;-86
2022/04/05 03:18:24;;;;;;;16.23;1.38;;;6.80;99.90;;;;;;5054132;28;20019;-86
2022/04/05 03:20:50;;;;;;;13.13;1.70;;;6.80;99.90;;;;;;5036109;28;20091;-86
2022/04/05 03:23:16;;;;;;;13.02;2.00;;;6.80;99.90;;;;;;5054072;28;20041;-86
2022/04/05 03:25:41;;;;;;;14.80;2.17;;;6.80;99.90;;;;;;5036160;28;20425;-86
2022/04/05 03:28:07;;;;;;;20.05;1.73;;;6.80;99.90;;;;;;5053945;28;20041;-86
2022/04/05 03:30:34;;;;;;;16.42;2.17;;;6.80;99.90;;;;;;5035964;28;20068;-86
2022/04/05 03:32:59;;;;;;;15.93;1.80;;;6.80;99.90;;;;;;5035855;28;20037;-86
2022/04/05 03:35:25;;;;;;;8.77;2.20;;;6.80;99.90;;;;;;5035870;28;20091;-86
2022/04/05 03:37:52;;;;;;;11.90;2.25;;;6.80;99.90;;;;;;5035877;28;20043;-85
2022/04/05 03:40:17;;;;;;;9.98;1.80;;;6.80;99.90;;;;;;5035841;28;20060;-86
2022/04/05 03:42:43;;;;;;;24.67;3.60;;;6.90;99.90;;;;;;5036216;28;20041;-86
2022/04/05 03:45:09;;;;;;;14.27;1.85;;;6.80;99.90;;;;;;5053654;28;20411;-86
2022/04/05 03:47:35;;;;;;;19.48;1.83;;;6.80;99.90;;;;;;5035884;28;20045;-86
2022/04/05 03:50:01;;;;;;;9.63;1.52;;;6.70;99.90;;;;;;5035876;28;20049;-86
2022/04/05 03:52:26;;;;;;;14.43;2.65;;;6.80;99.90;;;;;;5035617;28;20101;-86
2022/04/05 03:54:52;;;;;;;12.43;2.20;;;6.70;99.90;;;;;;5053628;28;20086;-86
2022/04/05 03:57:18;;;;;;;13.93;2.28;;;6.70;99.90;;;;;;5035810;28;20106;-86
2022/04/05 03:59:43;;;;;;;15.93;2.70;;;6.80;99.90;;;;;;5035706;28;20579;-86
2022/04/05 04:02:09;;;;;;;13.68;2.15;;;6.70;99.90;;;;;;5035349;28;20060;-86
2022/04/05 04:04:34;;;;;;;11.27;2.47;;;6.70;99.90;;;;;;5035490;28;20037;-85
2022/04/05 04:07:00;;;;;;;20.73;3.05;;;6.70;99.90;;;;;;5035849;28;20107;-86
2022/04/05 04:09:26;;;;;;;12.98;2.35;;;6.70;99.90;;;;;;5035906;28;20045;-86
2022/04/05 04:11:52;;;;;;;12.75;2.67;;;6.70;99.90;;;;;;5053389;28;20507;-86
2022/04/05 04:14:18;;;;;;;18.08;2.47;;;6.60;99.90;;;;;;5038451;28;20053;-86
2022/04/05 04:16:43;;;;;;;15.90;1.60;;;6.60;99.90;;;;;;5051919;28;20056;-86
2022/04/05 04:19:09;;;;;;;22.40;2.35;;;6.70;99.90;;;;;;5053393;28;20094;-86
2022/04/05 04:21:35;;;;;;;17.23;3.00;;;6.70;99.90;;;;;;5052327;28;20045;-86
2022/04/05 04:24:00;;;;;;;13.88;2.00;;;6.60;99.90;;;;;;5053321;28;20044;-85
2022/04/05 04:26:26;;;;;;;13.18;2.22;;;6.60;99.90;;;;;;5051974;28;20119;-85
2022/04/05 04:28:55;;;;;;;21.88;2.60;;;6.60;99.90;;;;;;5052012;28;20045;-86
2022/04/05 04:31:21;;;;;;;19.48;2.38;;;6.60;99.90;;;;;;5051804;28;20480;-86
2022/04/05 04:33:47;;;;;;;12.20;1.70;;;6.60;99.90;;;;;;5051902;28;20129;-86
2022/04/05 04:36:13;;;;;;;13.02;2.15;;;6.60;99.90;;;;;;5051897;28;20037;-86
2022/04/05 04:38:38;;;;;;;14.20;1.60;;;6.60;99.90;;;;;;5052238;28;20041;-86
2022/04/05 04:41:04;;;;;;;15.82;1.88;;;6.60;99.90;;;;;;5051957;28;20439;-86
2022/04/05 04:43:29;;;;;;;13.93;2.20;;;6.60;99.90;;;;;;5051819;28;20473;-86
2022/04/05 04:45:55;;;;;;;19.35;2.75;;;6.60;99.90;;;;;;5051993;28;20045;-86
2022/04/05 04:48:22;;;;;;;13.70;2.72;;;6.60;99.90;;;;;;5051622;28;20041;-85
2022/04/05 04:50:49;;;;;;;14.35;2.20;;;6.60;99.90;;;;;;5051708;28;20087;-85
2022/04/05 04:53:15;;;;;;;14.50;2.45;;;6.60;99.90;;;;;;5052063;28;20040;-86
2022/04/05 04:55:41;;;;;;;13.25;1.85;;;6.60;99.90;;;;;;5051966;28;20049;-85
2022/04/05 04:58:07;;;;;;;13.77;2.05;;;6.70;99.90;;;;;;5051586;28;20094;-85
2022/04/05 05:00:33;;;;;;;17.10;2.97;;;6.60;99.90;;;;;;5051626;28;20047;-86
2022/04/05 05:02:58;;;;;;;15.90;1.50;;;6.70;99.90;;;;;;5053061;28;20385;-86
2022/04/05 05:05:24;;;;;;;23.88;3.92;;;6.60;99.90;;;;;;5050612;28;20103;-86
2022/04/05 05:07:51;;;;;;;19.65;2.10;;;6.60;99.90;;;;;;5051627;28;20045;-86
2022/04/05 05:10:19;;;;;;;16.50;2.35;;;6.60;99.90;;;;;;5052483;28;20052;-86
2022/04/05 05:12:45;;;;;;;14.25;2.30;;;6.60;99.90;;;;;;5051762;28;20067;-86
2022/04/05 05:15:17;;;;;;;14.52;1.77;;;6.60;99.90;;;;;;5053870;28;20441;-86
2022/04/05 05:17:44;;;;;;;15.98;2.42;;;6.70;99.90;;;;;;5054930;28;20099;-85
2022/04/05 05:20:12;;;;;;;13.88;2.85;;;6.60;99.90;;;;;;5054781;28;20044;-86
2022/04/05 05:22:39;;;;;;;17.52;1.63;;;6.60;99.90;;;;;;5055091;28;20147;-86
2022/04/05 05:25:05;;;;;;;20.50;2.22;;;6.70;99.90;;;;;;5056064;28;20094;-86
2022/04/05 05:27:31;;;;;;;9.20;1.80;;;6.60;99.90;;;;;;5056470;28;20112;-86
2022/04/05 05:29:56;;;;;;;13.98;2.47;;;6.60;99.90;;;;;;5054857;28;20131;-86
2022/04/05 05:32:22;;;;;;;12.10;1.42;;;6.60;99.90;;;;;;5054702;28;20049;-87
2022/04/05 05:34:48;;;;;;;10.23;1.33;;;6.60;99.90;;;;;;5054575;28;20045;-86
2022/04/05 05:37:13;;;;;;;15.27;2.20;;;6.60;99.90;;;;;;5054513;28;20040;-85
2022/04/05 05:39:39;;;;;;;18.30;2.88;;;6.60;99.90;;;;;;5054437;28;20045;-86
2022/04/05 05:42:07;;;;;;;12.18;2.78;;;6.60;99.90;;;;;;5054744;28;20044;-86
2022/04/05 05:44:33;;;;;;;19.38;2.38;;;6.60;99.90;;;;;;5054611;28;20527;-86
2022/04/05 05:46:59;;;;;;;14.95;3.50;;;6.60;99.90;;;;;;5054442;28;20471;-86
2022/04/05 05:49:25;;;;;;;15.88;2.88;;;6.60;99.90;;;;;;5054462;28;20558;-87
2022/04/05 05:51:50;;;;;;;15.13;2.47;;;6.60;99.90;;;;;;5054209;28;20059;-87
2022/04/05 05:54:17;;;;;;;16.42;2.72;;;6.60;99.90;;;;;;5054116;28;20519;-86
2022/04/05 05:56:43;;;;;;;25.45;3.60;;;6.60;99.90;;;;;;5054191;28;20056;-86
2022/04/05 05:59:09;;;;;;;22.70;2.35;;;6.60;99.90;;;;;;5054155;28;20112;-86
2022/04/05 06:01:35;;;;;;;18.85;2.60;;;6.60;99.90;;;;;;5055459;28;20124;-86
2022/04/05 06:04:00;;;;;;;21.20;2.45;;;6.60;99.90;;;;;;5053987;28;20518;-86
2022/04/05 06:06:28;;;;;;;10.95;3.00;;;6.60;99.90;;;;;;5054216;28;20052;-86
2022/04/05 06:08:55;;;;;;;13.38;1.85;;;6.60;99.90;;;;;;5054206;28;20125;-85
2022/04/05 06:11:21;;;;;;;12.50;2.92;;;6.60;99.90;;;;;;5055029;28;20581;-85
2022/04/05 06:13:47;;;;;;;7.88;0.80;;;6.70;99.90;;;;;;5053973;28;20080;-85
2022/04/05 06:16:14;;;;;;;16.00;1.73;;;6.70;99.90;;;;;;5053672;28;20088;-85
2022/04/05 06:18:43;;;;;;;13.27;1.48;;;6.70;99.90;;;;;;5055030;28;20057;-86
2022/04/05 06:21:09;;;;;;;9.07;1.10;;;6.70;99.90;;;;;;5054120;28;20044;-86
2022/04/05 06:23:34;;;;;;;13.27;3.20;;;6.70;99.90;;;;;;5053582;28;20045;-86
2022/04/05 06:26:01;;;;;;;16.17;2.67;;;6.70;99.90;;;;;;5053707;28;20136;-86
2022/04/05 06:28:26;;;;;;;13.70;2.85;;;6.70;99.90;;;;;;5053535;28;20041;-86
2022/04/05 06:30:52;;;;;;;15.20;1.85;;;6.80;99.90;;;;;;5053334;28;20099;-86
2022/04/05 06:33:20;;;;;;;16.92;3.55;;;6.80;99.90;;;;;;5053751;28;20045;-85
2022/04/05 06:35:51;;;;;;;13.27;2.15;;;6.80;99.90;;;;;;5053726;28;20047;-85
2022/04/05 06:38:18;;;;;;;16.55;2.05;;;6.80;99.90;;;;;;5053399;28;20049;-88
2022/04/05 06:40:44;;;;;;;20.27;2.33;;;6.90;99.90;;;;;;5054521;28;20049;-86
2022/04/05 06:43:14;;;;;;;25.30;2.65;;;6.90;99.90;;;;;;5053307;28;20127;-82
2022/04/05 06:45:41;;;;;;;12.52;2.60;;;7.00;99.90;;;;;;5053503;28;20048;-87
2022/04/05 06:48:09;;;;;;;16.15;1.95;;;7.00;99.90;;;;;;5054616;28;20071;-89
2022/04/05 06:50:36;;;;;;;14.70;2.67;;;7.10;99.90;;;;;;5054261;28;20512;-87
2022/04/05 06:53:03;;;;;;;21.48;3.00;;;7.10;99.90;;;;;;5053481;28;20121;-86
2022/04/05 06:55:28;;;;;;;24.05;2.97;;;7.10;99.90;;;;;;5054464;28;20049;-85
2022/04/05 06:57:54;;;;;;;18.90;2.38;;;7.20;99.90;;;;;;5061491;28;20048;-87
2022/04/05 07:00:23;;;;;;;18.42;3.00;;;7.10;99.90;;;;;;5072672;28;20051;-85
2022/04/05 07:02:51;;;;;;;20.38;3.38;;;7.10;99.90;;;;;;5072567;28;20044;-85
2022/04/05 07:05:18;;;;;;;21.80;5.60;;;7.10;99.90;;;;;;5072693;28;20550;-83
2022/04/05 07:07:43;;;;;;;16.95;2.85;;;7.10;99.90;;;;;;5072838;28;20052;-85
2022/04/05 07:10:11;;;;;;;17.27;3.13;;;7.10;99.90;;;;;;5072511;28;20052;-85
2022/04/05 07:12:37;;;;;;;22.83;3.75;;;7.10;99.90;;;;;;5072430;28;20056;-83
2022/04/05 07:15:05;;;;;;;22.27;3.00;;;7.20;99.90;;;;;;5073647;28;20051;-85
2022/04/05 07:17:30;;;;;;;25.67;3.08;;;7.20;99.90;;;;;;5072557;28;20044;-86
2022/04/05 07:19:56;;;;;;;14.80;2.10;;;7.20;99.90;;;;;;5072579;28;20044;-89
2022/04/05 07:22:22;;;;;;;12.13;2.47;;;7.20;99.90;;;;;;5072318;28;20388;-88
2022/04/05 07:24:47;;;;;;;13.23;2.10;;;7.20;99.90;;;;;;5072381;28;20049;-88
2022/04/05 07:27:13;;;;;;;15.48;2.25;;;7.20;99.90;;;;;;5072331;28;20091;-86
2022/04/05 07:29:40;;;;;;;8.98;2.15;;;7.20;99.90;;;;;;5072255;28;20075;-88
2022/04/05 07:32:06;;;;;;;10.25;1.73;;;7.20;99.90;;;;;;5072067;28;20044;-87
2022/04/05 07:34:32;;;;;;;10.82;1.10;;;7.20;99.90;;;;;;5072396;28;20127;-86
2022/04/05 07:36:58;;;;;;;9.50;2.38;;;7.20;99.90;;;;;;5071942;28;20135;-88
2022/04/05 07:39:24;;;;;;;8.85;1.00;;;7.20;99.90;;;;;;5072391;28;20084;-86
2022/04/05 07:41:49;;;;;;;9.88;1.10;;;7.30;99.90;;;;;;5072408;28;20037;-86
2022/04/05 07:44:15;;;;;;;8.63;1.25;;;7.30;99.90;;;;;;5071980;28;20044;-85
2022/04/05 07:46:41;;;;;;;13.50;1.73;;;7.30;99.90;;;;;;5072026;28;20040;-85
2022/04/05 07:49:07;;;;;;;9.07;1.40;;;7.30;99.90;;;;;;5072891;28;20059;-87
2022/04/05 07:51:33;;;;;;;12.40;1.75;;;7.40;99.90;;;;;;5072219;28;20494;-86
2022/04/05 07:53:59;;;;;;;10.65;1.73;;;7.30;99.90;;;;;;5071894;28;20052;-86
2022/04/05 07:56:24;;;;;;;11.68;1.70;;;7.40;99.90;;;;;;5071979;28;20483;-90
2022/04/05 07:58:50;;;;;;;11.32;1.38;;;7.40;99.90;;;;;;5072294;28;20037;-89
2022/04/05 08:01:16;;;;;;;10.20;2.17;;;7.50;99.90;;;;;;5072975;28;20130;-91
2022/04/05 08:03:42;;;;;;;13.85;1.63;;;7.40;99.90;;;;;;5073112;28;20476;-89
2022/04/05 08:06:08;;;;;;;9.07;1.50;;;7.40;99.90;;;;;;5072582;28;20066;-90
2022/04/05 08:08:33;;;;;;;9.88;1.23;;;7.30;99.90;;;;;;5073724;28;20041;-89
2022/04/05 08:11:00;;;;;;;9.40;1.15;;;7.20;99.90;;;;;;5065304;28;20044;-85
2022/04/05 08:13:26;;;;;;;9.55;2.17;;;7.20;99.90;;;;;;5062163;28;20127;-85
2022/04/05 08:15:53;;;;;;;10.82;1.08;;;7.20;99.90;;;;;;5052650;28;20068;-87
2022/04/05 08:18:19;;;;;;;8.07;0.95;;;7.20;99.90;;;;;;5051693;28;20085;-86
2022/04/05 08:20:45;;;;;;;8.82;1.67;;;7.20;99.90;;;;;;5053123;28;20044;-86
2022/04/05 08:23:11;;;;;;;8.80;0.95;;;7.30;99.90;;;;;;5052009;28;20072;-85
2022/04/05 08:25:37;;;;;;;8.48;1.42;;;7.30;99.90;;;;;;5057465;28;20453;-87
2022/04/05 08:28:04;;;;;;;8.63;1.15;;;7.30;99.90;;;;;;5058516;28;20102;-89
2022/04/05 08:30:31;;;;;;;7.90;1.20;;;7.30;99.90;;;;;;5055139;28;20487;-90
2022/04/05 08:32:56;;;;;;;10.00;1.30;;;7.30;99.90;;;;;;5055071;28;20044;-90
2022/04/05 08:35:23;;;;;;;6.55;1.02;;;7.30;99.90;;;;;;5055027;28;20049;-93
2022/04/05 08:37:51;;;;;;;8.13;1.27;;;7.40;99.90;;;;;;5063122;28;20033;-90
2022/04/05 08:40:19;;;;;;;13.20;1.50;;;7.40;99.90;;;;;;5059935;28;20051;-89
2022/04/05 08:42:48;;;;;;;7.60;1.40;;;7.50;99.90;;;;;;5060785;28;20041;-88
2022/04/05 08:45:15;;;;;;;9.95;1.20;;;7.40;99.90;;;;;;5071444;28;20044;-88
2022/04/05 08:47:51;;;;;;;14.15;1.38;;;7.40;99.90;;;;;;5071685;28;20086;-90
2022/04/05 08:50:23;;;;;;;9.25;1.27;;;7.40;99.90;;;;;;5073098;28;20086;-88
2022/04/05 08:52:49;;;;;;;8.30;1.58;;;7.40;99.90;;;;;;5066046;28;20055;-88
2022/04/05 08:55:15;;;;;;;10.35;1.25;;;7.40;99.90;;;;;;5076306;28;20382;-89
2022/04/05 08:57:42;;;;;;;15.48;1.88;;;7.50;99.90;;;;;;5075223;28;20056;-89
2022/04/05 09:00:10;;;;;;;12.57;1.67;;;7.50;99.90;;;;;;5075404;28;20063;-88
2022/04/05 09:02:36;;;;;;;9.90;2.83;;;7.50;99.90;;;;;;5075106;28;20051;-88
2022/04/05 09:05:03;;;;;;;12.63;1.30;;;7.50;99.90;;;;;;5075248;28;20048;-88
2022/04/05 09:07:31;;;;;;;12.23;1.42;;;7.50;99.90;;;;;;5074983;28;20091;-87
2022/04/05 09:10:13;;;;;;;9.85;1.90;;;7.50;99.90;;;;;;5076330;28;20036;-88
2022/04/05 09:12:45;;;;;;;8.57;1.20;;;7.50;99.90;;;;;;5063355;28;20048;-87
2022/04/05 09:15:24;;;;;;;12.65;1.55;;;7.50;99.90;;;;;;5074601;28;20052;-87
2022/04/05 09:17:51;;;;;;;8.43;1.27;;;7.50;99.90;;;;;;5074737;28;20097;-87
2022/04/05 09:20:18;;;;;;;9.35;1.20;;;7.50;99.90;;;;;;5074531;28;20129;-88
2022/04/05 09:22:44;;;;;;;12.65;2.55;;;7.50;99.90;;;;;;5057071;28;20049;-90
2022/04/05 09:25:15;;;;;;;8.35;1.50;;;7.40;99.90;;;;;;5054669;28;20080;-89
2022/04/05 09:27:53;;;;;;;9.10;1.65;;;7.40;99.90;;;;;;5054880;28;20112;-89
2022/04/05 09:30:31;;;;;;;4.95;0.82;;;7.40;99.90;;;;;;5055833;28;20041;-88
2022/04/05 09:32:58;;;;;;;5.10;1.30;;;7.30;99.90;;;;;;5055603;28;20059;-88
2022/04/05 09:35:29;;;;;;;6.55;1.05;;;7.30;99.90;;;;;;5054696;28;20049;-89
2022/04/05 09:38:14;;;;;;;11.38;1.10;;;7.20;99.90;;;;;;5056368;28;20045;-96
2022/04/05 09:40:41;;;;;;;8.27;0.90;;;7.30;99.90;;;;;;5057727;28;20041;-88
2022/04/05 09:43:08;;;;;;;8.40;0.95;;;7.30;99.90;;;;;;5054682;28;20041;-88
2022/04/05 09:45:53;;;;;;;8.65;1.52;;;7.30;99.90;;;;;;5054398;28;20095;-90
2022/04/05 09:48:24;;;;;;;6.07;1.13;;;7.40;99.90;;;;;;5054451;28;20052;-88
2022/04/05 09:50:59;;;;;;;8.90;0.98;;;7.30;99.90;;;;;;5054043;28;20403;-91
2022/04/05 09:53:46;;;;;;;8.82;1.08;;;7.30;99.90;;;;;;5054641;28;20055;-90
2022/04/05 09:56:19;;;;;;;8.15;1.08;;;7.30;99.90;;;;;;5054488;28;20081;-85
2022/04/05 09:58:50;;;;;;;6.80;1.42;;;7.40;99.90;;;;;;5054533;28;20151;-88
2022/04/05 10:01:18;;;;;;;6.90;1.13;;;7.50;99.90;;;;;;5053999;28;20084;-87
2022/04/05 10:04:15;;;;;;;7.97;0.85;;;7.70;99.90;;;;;;5057146;28;20147;-96
2022/04/05 10:06:46;;;;;;;7.10;0.80;;;7.70;99.90;;;;;;5055326;28;20052;-92
2022/04/05 10:09:28;;;;;;;8.30;0.90;;;7.80;99.90;;;;;;5054607;28;20055;-94
2022/04/05 10:11:56;;;;;;;6.57;0.73;;;7.80;99.90;;;;;;5054486;28;20084;-87
2022/04/05 10:14:21;;;;;;;5.88;0.90;;;7.80;99.90;;;;;;5054007;28;20049;-92
2022/04/05 10:16:49;;;;;;;8.05;0.82;;;7.90;99.90;;;;;;5054026;28;20068;-93
2022/04/05 10:19:15;;;;;;;9.02;0.80;;;7.80;99.90;;;;;;5054802;28;20033;-93
2022/04/05 10:21:42;;;;;;;5.47;0.80;;;7.90;99.90;;;;;;5054798;28;20041;-94
2022/04/05 10:24:09;;;;;;;11.93;1.15;;;8.00;99.90;;;;;;5054484;28;20057;-94
2022/04/05 10:26:40;;;;;;;10.25;1.38;;;7.90;99.90;;;;;;5054516;28;20044;-95
2022/04/05 10:29:14;;;;;;;4.90;1.17;;;7.80;99.90;;;;;;5056698;28;20519;-94
2022/04/05 10:32:07;;;;;;;8.65;1.08;;;7.80;99.90;;;;;;5055390;28;20052;-94
2022/04/05 10:34:53;;;;;;;5.78;1.00;;;7.70;99.90;;;;;;5054270;28;20163;-94
2022/04/05 10:37:36;;;;;;;6.60;1.08;;;7.70;99.90;;;;;;5055115;28;20092;-89
2022/04/05 10:40:02;;;;;;;9.02;1.58;;;7.80;99.90;;;;;;5059992;28;20075;-94
2022/04/05 10:42:52;;;;;;;13.07;2.88;;;7.80;99.90;;;;;;5058145;28;20120;-93
2022/04/05 10:45:28;;;;;;;8.23;1.95;;;7.90;99.90;;;;;;5273532;22;20563;-90
2022/04/05 10:48:18;;;;;;;10.30;1.50;;;7.80;99.90;;;;;;5077186;28;20480;-87
2022/04/05 10:51:07;;;;;;;4.03;1.20;;;7.80;99.90;;;;;;5076257;28;20074;-86
2022/04/05 10:53:34;;;;;;;6.97;1.63;;;7.80;99.90;;;;;;5066093;28;20044;-88
2022/04/05 10:56:03;;;;;;;10.88;1.65;;;7.70;99.90;;;;;;5076393;28;20036;-92
2022/04/05 10:58:40;;;;;;;7.35;1.52;;;7.80;99.90;;;;;;5076291;28;20040;-94
2022/04/05 11:01:23;;;;;;;2.72;0.77;;;7.80;99.90;;;;;;5076890;28;20109;-90
2022/04/05 11:04:20;;;;;;;6.82;1.08;;;7.80;99.90;;;;;;5076958;28;20040;-89
2022/04/05 11:07:15;;;;;;;6.28;1.02;;;7.90;99.90;;;;;;5076298;28;20048;-94
2022/04/05 11:09:53;;;;;;;8.88;1.40;;;7.90;99.90;;;;;;5077512;28;20503;-94
2022/04/05 11:12:28;;;;;;;6.60;1.05;;;8.00;99.90;;;;;;5094302;28;20051;-87
2022/04/05 11:15:03;;;;;;;6.30;1.13;;;8.00;99.90;;;;;;5094211;28;20052;-87
2022/04/05 11:17:31;;;;;;;8.18;1.00;;;8.00;99.90;;;;;;5076452;28;20420;-86
2022/04/05 11:19:59;;;;;;;7.72;1.20;;;8.00;99.90;;;;;;5077541;28;20048;-93
2022/04/05 11:22:25;;;;;;;8.85;1.40;;;8.00;99.90;;;;;;5093894;28;20046;-88
2022/04/05 11:25:04;;;;;;;14.05;2.28;;;8.00;99.90;;;;;;5076328;28;20063;-93
2022/04/05 11:27:33;;;;;;;16.85;3.33;;;8.00;99.90;;;;;;5077223;28;20071;-91
2022/04/05 11:30:20;;;;;;;11.32;2.08;;;8.10;99.90;;;;;;5094430;28;20044;-93
2022/04/05 11:33:17;;;;;;;14.63;1.77;;;8.00;99.90;;;;;;5094354;28;20089;-87
2022/04/05 11:35:50;;;;;;;10.95;2.25;;;8.00;99.90;;;;;;5076369;28;20114;-94
2022/04/05 11:38:18;;;;;;;;;;;8.00;99.90;;;;;;5077002;28;20054;-86
2022/04/05 11:40:53;;;;;;;9.73;1.73;;;8.10;99.90;;;;;;5077841;28;19969;-95
2022/04/05 11:43:25;;;;;;;14.10;2.13;;;8.20;99.90;;;;;;5079297;28;20040;-91
2022/04/05 11:46:15;;;;;;;6.38;1.55;;;8.10;99.90;;;;;;5073887;28;20059;-86
2022/04/05 11:48:46;;;;;;;8.80;1.85;;;8.20;99.90;;;;;;5093719;28;20040;-86
2022/04/05 11:51:20;;;;;;;7.35;1.70;;;8.30;99.90;;;;;;5075638;28;20051;-88
2022/04/05 11:53:47;;;;;;;9.05;2.08;;;8.50;99.90;;;;;;5078344;28;20040;-92
2022/04/05 11:56:17;;;;;;;8.23;1.95;;;8.50;99.90;;;;;;5076476;28;20507;-93
2022/04/05 11:58:51;;;;;;;8.38;1.73;;;8.60;99.90;;;;;;5075673;28;20076;-90
2022/04/05 12:01:25;;;;;;;10.38;1.70;;;8.60;99.90;;;;;;5076130;28;20066;-89
2022/04/05 12:03:59;;;;;;;10.85;1.90;;;8.70;99.90;;;;;;5075978;28;20036;-87
2022/04/05 12:06:28;;;;;;;7.13;1.70;;;8.60;99.90;;;;;;5084915;28;20127;-95
2022/04/05 12:08:56;;;;;;;7.80;1.92;;;8.50;99.90;;;;;;5077941;28;20453;-93
2022/04/05 12:11:27;;;;;;;12.30;2.30;;;8.50;99.90;;;;;;5077561;28;20054;-93
2022/04/05 12:14:06;;;;;;;11.90;2.75;;;8.50;99.90;;;;;;5076580;28;20044;-87
2022/04/05 12:16:58;;;;;;;7.25;2.42;;;8.50;99.90;;;;;;5075263;28;20059;-88
2022/04/05 12:19:25;;;;;;;9.35;2.17;;;8.50;99.90;;;;;;5093502;28;20525;-93
2022/04/05 12:21:56;;;;;;;14.65;1.95;;;8.60;99.90;;;;;;5093570;28;20048;-88
2022/04/05 12:24:23;;;;;;;9.30;2.15;;;8.60;99.90;;;;;;5078887;28;20062;-92
2022/04/05 12:26:49;;;;;;;7.22;1.83;;;8.50;99.90;;;;;;5079771;28;20062;-86
2022/04/05 12:29:14;;;;;;;11.38;2.17;;;8.60;99.90;;;;;;5096130;28;20055;-86
2022/04/05 12:31:40;;;;;;;6.40;1.55;;;8.60;99.90;;;;;;5079004;28;20148;-83
2022/04/05 12:34:11;;;;;;;7.68;2.05;;;8.60;99.90;;;;;;5079094;28;20471;-84
2022/04/05 12:36:54;;;;;;;8.57;1.98;;;8.70;99.90;;;;;;5079284;28;20048;-95
2022/04/05 12:39:25;;;;;;;12.00;2.67;;;8.60;99.90;;;;;;5079009;28;20040;-90
2022/04/05 12:42:05;;;;;;;12.90;2.95;;;8.60;99.90;;;;;;5079198;28;20048;-94
2022/04/05 12:44:34;;;;;;;9.48;2.78;;;8.60;99.90;;;;;;5079636;28;20044;-95
2022/04/05 12:47:21;;;;;;;10.85;1.83;;;8.50;99.90;;;;;;5101244;28;20540;-95
2022/04/05 12:49:49;;;;;;;8.57;2.00;;;8.40;99.90;;;;;;5078843;28;20078;-89
2022/04/05 12:52:27;;;;;;;8.80;1.70;;;8.40;99.90;;;;;;5078605;28;20062;-86
2022/04/05 12:54:56;;;;;;;12.10;2.03;;;8.50;99.90;;;;;;5096646;28;20040;-87
2022/04/05 12:57:32;;;;;;;9.82;2.13;;;8.40;99.90;;;;;;5094856;28;20036;-88
2022/04/05 13:00:23;;;;;;;6.75;2.17;;;8.50;99.90;;;;;;5084256;28;20080;-88